createdAt,value
2022-10-28T00:02:16.410Z,94.85
2022-10-28T00:05:18.970Z,94.35
2022-10-28T00:08:21.224Z,93.84
2022-10-28T00:11:25.916Z,93.57
2022-10-28T00:14:28.607Z,93.70
2022-10-28T00:17:30.734Z,93.71
2022-10-28T00:20:33.081Z,94.05
2022-10-28T00:23:35.243Z,94.59
2022-10-28T00:26:39.114Z,94.88
2022-10-28T00:29:41.121Z,94.51
2022-10-28T00:32:43.385Z,94.47
2022-10-28T00:35:45.390Z,93.95
2022-10-28T00:38:49.900Z,97.46
2022-10-28T00:41:54.118Z,97.35
2022-10-28T00:45:04.072Z,97.56
2022-10-28T00:48:06.412Z,96.96
2022-10-28T00:51:09.814Z,96.38
2022-10-28T00:54:12.311Z,97.03
2022-10-28T00:57:21.668Z,97.29
2022-10-28T01:00:25.135Z,96.74
2022-10-28T01:03:27.490Z,97.29
2022-10-28T01:06:30.115Z,97.02
2022-10-28T01:09:32.354Z,95.89
2022-10-28T01:12:40.035Z,96.92
2022-10-28T01:16:04.047Z,96.79
2022-10-28T01:19:24.534Z,96.49
2022-10-28T01:22:48.709Z,96.05
2022-10-28T01:26:28.185Z,96.24
2022-10-28T01:29:52.289Z,96.45
2022-10-28T01:33:15.521Z,96.84
2022-10-28T01:36:41.091Z,96.64
2022-10-28T01:39:58.058Z,96.44
2022-10-28T01:43:20.221Z,96.18
2022-10-28T01:46:29.387Z,96.49
2022-10-28T01:49:39.691Z,96.65
2022-10-28T01:52:43.944Z,97.24
2022-10-28T01:55:48.602Z,97.94
2022-10-28T01:58:50.709Z,98.33
2022-10-28T02:01:54.398Z,98.05
2022-10-28T02:05:07.441Z,98.00
2022-10-28T02:08:34.456Z,97.90
2022-10-28T02:12:08.399Z,98.44
2022-10-28T02:15:32.281Z,98.48
2022-10-28T02:18:59.022Z,98.41
2022-10-28T02:22:26.082Z,98.66
2022-10-28T02:25:42.213Z,98.63
2022-10-28T02:28:57.107Z,98.55
2022-10-28T02:32:04.378Z,99.62
2022-10-28T02:35:13.507Z,99.51
2022-10-28T02:38:40.432Z,99.41
2022-10-28T02:41:54.733Z,100.00
2022-10-28T02:45:00.382Z,100.00
2022-10-28T02:48:06.798Z,100.00
2022-10-28T02:51:27.873Z,100.00
2022-10-28T02:54:35.749Z,99.78
2022-10-28T02:57:42.546Z,99.36
2022-10-28T03:00:45.857Z,98.92
2022-10-28T03:03:48.470Z,98.47
2022-10-28T03:06:50.884Z,98.43
2022-10-28T03:09:52.987Z,98.22
2022-10-28T03:12:55.238Z,98.72
2022-10-28T03:15:57.304Z,98.22
2022-10-28T03:18:59.624Z,97.92
2022-10-28T03:22:01.700Z,98.31
2022-10-28T03:25:04.364Z,98.65
2022-10-28T03:28:06.547Z,98.71
2022-10-28T03:31:08.771Z,98.62
2022-10-28T03:34:10.835Z,99.20
2022-10-28T03:37:13.667Z,99.05
2022-10-28T03:40:15.806Z,98.70
2022-10-28T03:43:18.323Z,98.66
2022-10-28T03:46:20.297Z,98.01
2022-10-28T03:49:22.592Z,97.85
2022-10-28T03:52:24.684Z,97.35
2022-10-28T03:55:27.597Z,98.00
2022-10-28T03:58:29.998Z,98.26
2022-10-28T04:01:32.441Z,97.72
2022-10-28T04:04:34.564Z,96.83
2022-10-28T04:07:36.732Z,96.68
2022-10-28T04:10:39.622Z,96.34
2022-10-28T04:13:43.923Z,97.09
2022-10-28T04:16:45.926Z,97.60
2022-10-28T04:19:48.110Z,97.29
2022-10-28T04:22:54.554Z,97.09
2022-10-28T04:25:59.326Z,97.36
2022-10-28T04:29:01.436Z,97.71
2022-10-28T04:32:03.908Z,97.34
2022-10-28T04:35:06.247Z,97.01
2022-10-28T04:38:15.419Z,96.70
2022-10-28T04:41:18.398Z,97.05
2022-10-28T04:44:20.659Z,97.61
2022-10-28T04:47:22.649Z,97.31
2022-10-28T04:50:24.969Z,97.23
2022-10-28T04:53:27.081Z,97.29
2022-10-28T04:56:31.073Z,96.84
2022-10-28T04:59:33.135Z,96.04
2022-10-28T05:02:35.320Z,95.85
2022-10-28T05:05:37.642Z,95.44
2022-10-28T05:08:39.861Z,95.57
2022-10-28T05:11:41.994Z,95.23
2022-10-28T05:14:44.161Z,95.25
2022-10-28T05:17:47.259Z,94.81
2022-10-28T05:20:54.886Z,94.84
2022-10-28T05:23:57.346Z,94.87
2022-10-28T05:27:00.845Z,94.68
2022-10-28T05:30:03.346Z,95.09
2022-10-28T05:33:05.680Z,94.76
2022-10-28T05:36:08.483Z,94.79
2022-10-28T05:39:10.666Z,94.78
2022-10-28T05:42:12.657Z,94.48
2022-10-28T05:45:15.140Z,94.40
2022-10-28T05:48:17.181Z,94.54
2022-10-28T05:51:19.405Z,94.77
2022-10-28T05:54:21.640Z,94.73
2022-10-28T05:57:23.801Z,95.14
2022-10-28T06:00:26.561Z,95.22
2022-10-28T06:03:31.156Z,95.20
2022-10-28T06:06:33.619Z,95.04
2022-10-28T06:09:35.962Z,94.92
2022-10-28T06:12:36.731Z,95.51
2022-10-28T06:15:38.994Z,96.26
2022-10-28T06:18:41.047Z,96.38
2022-10-28T06:21:43.279Z,97.14
2022-10-28T06:24:45.380Z,96.91
2022-10-28T06:27:55.223Z,97.50
2022-10-28T06:31:05.605Z,97.79
2022-10-28T06:34:08.950Z,98.90
2022-10-28T06:37:12.608Z,98.41
2022-10-28T06:40:14.910Z,98.54
2022-10-28T06:43:17.085Z,98.45
2022-10-28T06:46:19.422Z,100.00
2022-10-28T06:49:23.082Z,99.35
2022-10-28T06:52:25.430Z,100.00
2022-10-28T06:55:28.103Z,100.00
2022-10-28T06:58:30.500Z,100.00
2022-10-28T07:01:35.410Z,100.00
2022-10-28T07:04:40.039Z,100.00
2022-10-28T07:07:42.061Z,100.00
2022-10-28T07:10:44.733Z,99.82
2022-10-28T07:13:48.928Z,99.06
2022-10-28T07:16:51.409Z,99.84
2022-10-28T07:19:53.416Z,100.00
2022-10-28T07:23:00.187Z,100.00
2022-10-28T07:26:02.369Z,100.00
2022-10-28T07:29:04.538Z,100.00
2022-10-28T07:32:07.112Z,100.00
2022-10-28T07:35:09.439Z,100.00
2022-10-28T07:38:11.867Z,100.00
2022-10-28T07:41:14.160Z,100.00
2022-10-28T07:44:16.326Z,100.00
2022-10-28T07:47:19.683Z,100.00
2022-10-28T07:50:21.664Z,100.00
2022-10-28T07:53:26.373Z,100.00
2022-10-28T07:56:30.719Z,100.00
2022-10-28T07:59:32.934Z,100.00
2022-10-28T08:02:35.179Z,100.00
2022-10-28T08:05:37.390Z,100.00
2022-10-28T08:08:40.090Z,100.00
2022-10-28T08:11:42.415Z,100.00
2022-10-28T08:14:44.913Z,100.00
2022-10-28T08:17:51.669Z,100.00
2022-10-28T08:20:53.985Z,100.00
2022-10-28T08:23:56.307Z,100.00
2022-10-28T08:26:58.432Z,100.00
2022-10-28T08:30:00.724Z,100.00
2022-10-28T08:33:02.820Z,100.00
2022-10-28T08:36:06.974Z,100.00
2022-10-28T08:39:09.740Z,100.00
2022-10-28T08:42:36.373Z,100.00
2022-10-28T08:45:41.482Z,100.00
2022-10-28T08:48:43.884Z,100.00
2022-10-28T08:52:23.350Z,100.00
2022-10-28T08:55:55.929Z,100.00
2022-10-28T08:59:00.890Z,100.00
2022-10-28T09:02:24.333Z,100.00
2022-10-28T09:05:27.375Z,100.00
2022-10-28T09:08:32.226Z,100.00
2022-10-28T09:11:52.373Z,100.00
2022-10-28T09:15:36.691Z,99.14
2022-10-28T09:18:58.620Z,97.54
2022-10-28T09:22:20.892Z,99.56
2022-10-28T09:25:48.641Z,93.38
2022-10-28T09:29:02.950Z,93.58
2022-10-28T09:32:31.034Z,91.00
2022-10-28T09:35:52.119Z,91.64
2022-10-28T09:38:56.728Z,87.65
2022-10-28T09:42:01.114Z,86.42
2022-10-28T09:45:05.916Z,84.10
2022-10-28T09:48:29.035Z,85.93
2022-10-28T09:51:50.943Z,85.83
2022-10-28T09:54:53.713Z,85.98
2022-10-28T09:57:56.721Z,84.28
2022-10-28T10:00:59.239Z,82.21
2022-10-28T10:04:01.913Z,84.94
2022-10-28T10:07:07.909Z,81.47
2022-10-28T10:10:32.683Z,81.98
2022-10-28T10:13:39.739Z,79.76
2022-10-28T10:16:46.275Z,77.35
2022-10-28T10:20:17.846Z,77.73
2022-10-28T10:23:26.070Z,77.73
2022-10-28T10:26:32.853Z,78.73
2022-10-28T10:29:35.658Z,76.32
2022-10-28T10:32:57.138Z,76.49
2022-10-28T10:36:03.096Z,76.05
2022-10-28T10:39:05.157Z,75.36
2022-10-28T10:42:22.359Z,73.70
2022-10-28T10:45:27.264Z,74.56
2022-10-28T10:48:32.405Z,74.77
2022-10-28T10:51:37.437Z,74.26
2022-10-28T10:54:58.170Z,73.69
2022-10-28T10:58:01.102Z,74.01
2022-10-28T11:01:24.330Z,72.72
2022-10-28T11:04:28.103Z,71.61
2022-10-28T11:07:32.228Z,70.28
2022-10-28T11:10:35.314Z,71.24
2022-10-28T11:13:40.073Z,69.74
2022-10-28T11:16:53.987Z,70.50
2022-10-28T11:19:58.108Z,71.07
2022-10-28T11:23:26.495Z,68.80
2022-10-28T11:26:29.069Z,70.18
2022-10-28T11:29:31.928Z,66.75
2022-10-28T11:33:14.875Z,67.37
2022-10-28T11:36:31.169Z,68.36
2022-10-28T11:40:10.822Z,67.92
2022-10-28T11:43:39.380Z,67.68
2022-10-28T11:47:20.760Z,65.47
2022-10-28T11:50:47.221Z,66.40
2022-10-28T11:53:52.189Z,66.58
2022-10-28T11:57:09.369Z,66.71
2022-10-28T12:00:48.818Z,66.74
2022-10-28T12:04:27.301Z,65.61
2022-10-28T12:07:29.546Z,66.53
2022-10-28T12:10:49.950Z,66.81
2022-10-28T12:17:39.026Z,66.62
2022-10-28T12:20:41.335Z,66.05
2022-10-28T12:23:44.638Z,66.55
2022-10-28T12:26:50.599Z,66.52
2022-10-28T12:29:58.338Z,68.00
2022-10-28T12:33:31.259Z,66.27
2022-10-28T12:37:14.235Z,67.99
2022-10-28T12:41:04.313Z,67.85
2022-10-28T12:44:12.923Z,67.03
2022-10-28T12:47:30.364Z,67.79
2022-10-28T12:50:45.037Z,67.47
2022-10-28T12:53:48.175Z,69.60
2022-10-28T12:57:14.462Z,67.75
2022-10-28T13:00:21.590Z,68.36
2022-10-28T13:03:42.502Z,68.43
2022-10-28T13:07:22.333Z,67.65
2022-10-28T13:10:48.421Z,68.12
2022-10-28T13:13:57.581Z,68.17
2022-10-28T13:17:17.989Z,68.24
2022-10-28T13:20:41.672Z,67.62
2022-10-28T13:24:14.741Z,70.50
2022-10-28T13:27:17.268Z,70.84
2022-10-28T13:30:37.701Z,70.87
2022-10-28T13:34:00.320Z,71.11
2022-10-28T13:37:23.174Z,70.70
2022-10-28T13:40:31.702Z,70.77
2022-10-28T13:43:52.049Z,71.79
2022-10-28T13:47:29.369Z,72.59
2022-10-28T13:50:34.948Z,74.22
2022-10-28T13:53:52.005Z,74.88
2022-10-28T13:56:55.194Z,78.90
2022-10-28T14:00:20.224Z,81.43
2022-10-28T14:03:25.151Z,83.24
2022-10-28T14:06:33.449Z,84.90
2022-10-28T14:09:36.624Z,85.15
2022-10-28T14:12:48.312Z,86.69
2022-10-28T14:16:17.720Z,87.21
2022-10-28T14:19:38.585Z,88.52
2022-10-28T14:22:59.715Z,90.12
2022-10-28T14:26:20.298Z,92.20
2022-10-28T14:29:23.751Z,93.21
2022-10-28T14:32:32.035Z,93.10
2022-10-28T14:35:58.767Z,95.37
2022-10-28T14:39:04.678Z,95.39
2022-10-28T14:42:54.043Z,96.65
2022-10-28T14:46:34.078Z,95.81
2022-10-28T14:49:37.080Z,97.45
2022-10-28T14:52:39.448Z,96.67
2022-10-28T14:55:46.166Z,98.85
2022-10-28T14:58:49.342Z,97.94
2022-10-28T15:02:14.635Z,97.86
2022-10-28T15:05:22.214Z,98.67
2022-10-28T15:08:24.936Z,98.98
2022-10-28T15:11:27.242Z,98.93
2022-10-28T15:14:38.964Z,99.19
2022-10-28T15:17:42.462Z,97.15
2022-10-28T15:20:44.609Z,97.12
2022-10-28T15:24:01.425Z,97.01
2022-10-28T15:27:03.954Z,97.74
2022-10-28T15:30:26.275Z,97.17
2022-10-28T15:33:31.470Z,97.55
2022-10-28T15:36:33.738Z,97.44
2022-10-28T15:39:36.732Z,98.30
2022-10-28T15:43:04.983Z,98.22
2022-10-28T15:46:25.694Z,98.54
2022-10-28T15:50:00.204Z,97.92
2022-10-28T15:53:40.266Z,99.42
2022-10-28T15:56:57.316Z,100.00
2022-10-28T16:00:22.055Z,99.82
2022-10-28T16:16:31.473Z,100.00
2022-10-28T16:20:04.888Z,100.00
2022-10-28T16:23:20.036Z,100.00
2022-10-28T16:42:01.707Z,100.00
2022-10-28T16:45:08.856Z,100.00
2022-10-28T16:48:14.078Z,99.43
2022-10-28T16:51:18.117Z,100.00
2022-10-28T16:54:21.119Z,100.00
2022-10-28T16:57:25.688Z,100.00
2022-10-28T17:00:29.440Z,100.00
2022-10-28T17:03:33.960Z,100.00
2022-10-28T17:06:37.121Z,100.00
2022-10-28T17:09:41.049Z,99.58
2022-10-28T17:12:44.447Z,99.50
2022-10-28T17:15:52.801Z,100.00
2022-10-28T17:18:55.554Z,100.00
2022-10-28T17:21:59.055Z,100.00
2022-10-28T17:25:01.970Z,100.00
2022-10-28T17:28:05.265Z,100.00
2022-10-28T17:31:09.396Z,100.00
2022-10-28T17:34:12.731Z,100.00
2022-10-28T17:37:16.030Z,100.00
2022-10-28T17:40:18.996Z,100.00
2022-10-28T17:43:24.229Z,100.00
2022-10-28T17:46:29.365Z,100.00
2022-10-28T17:49:34.952Z,100.00
2022-10-28T17:52:38.669Z,100.00
2022-10-28T17:55:42.595Z,100.00
2022-10-28T17:58:48.754Z,100.00
2022-10-28T18:01:52.133Z,100.00
2022-10-28T18:04:55.310Z,100.00
2022-10-28T18:07:58.756Z,100.00
2022-10-28T18:11:14.640Z,100.00
2022-10-28T18:14:21.001Z,100.00
2022-10-28T18:17:24.228Z,100.00
2022-10-28T18:20:26.941Z,100.00
2022-10-28T18:23:31.469Z,100.00
2022-10-28T18:26:36.905Z,100.00
2022-10-28T18:29:40.876Z,100.00
2022-10-28T18:32:43.856Z,100.00
2022-10-28T18:35:48.048Z,100.00
2022-10-28T18:38:52.000Z,100.00
2022-10-28T18:41:59.171Z,100.00
2022-10-28T18:45:03.370Z,100.00
2022-10-28T18:48:07.433Z,100.00
2022-10-28T18:51:13.521Z,100.00
2022-10-28T18:54:17.022Z,100.00
2022-10-28T18:57:20.763Z,100.00
2022-10-28T19:00:24.273Z,100.00
2022-10-28T19:03:27.396Z,100.00
2022-10-28T19:06:35.251Z,100.00
2022-10-28T19:09:39.175Z,100.00
2022-10-28T19:12:45.013Z,100.00
2022-10-28T19:15:51.213Z,100.00
2022-10-28T19:18:59.201Z,100.00
2022-10-28T19:22:02.016Z,100.00
2022-10-28T19:25:05.737Z,100.00
2022-10-28T19:28:09.009Z,100.00
2022-10-28T19:31:31.380Z,100.00
2022-10-28T19:34:38.276Z,100.00
2022-10-28T19:37:43.004Z,100.00
2022-10-28T19:40:46.039Z,100.00
2022-10-28T19:43:56.780Z,100.00
2022-10-28T19:47:01.591Z,100.00
2022-10-28T19:50:05.725Z,100.00
2022-10-28T19:53:08.766Z,100.00
2022-10-28T19:59:15.237Z,100.00
2022-10-28T20:02:19.177Z,99.72
2022-10-28T20:05:21.895Z,100.00
2022-10-28T20:08:25.131Z,100.00
2022-10-28T20:11:33.387Z,98.15
2022-10-28T20:14:36.517Z,99.51
2022-10-28T20:17:39.327Z,100.00
2022-10-28T20:20:42.770Z,100.00
2022-10-28T20:26:58.317Z,100.00
2022-10-28T20:30:01.189Z,100.00
2022-10-28T20:33:07.193Z,100.00
2022-10-28T20:36:26.211Z,100.00
2022-10-28T20:39:29.138Z,100.00
2022-10-28T20:42:31.705Z,100.00
2022-10-28T20:45:35.217Z,100.00
2022-10-28T20:48:38.043Z,100.00
2022-10-28T20:51:41.934Z,100.00
2022-10-28T20:54:44.602Z,100.00
2022-10-28T20:57:47.881Z,100.00
2022-10-28T21:00:55.603Z,100.00
2022-10-28T21:04:00.609Z,100.00
2022-10-28T21:07:03.092Z,100.00
2022-10-28T21:10:06.449Z,100.00
2022-10-28T21:13:08.972Z,100.00
2022-10-28T21:16:12.957Z,100.00
2022-10-28T21:19:15.605Z,100.00
2022-10-28T21:22:19.234Z,100.00
2022-10-28T21:25:22.618Z,100.00
2022-10-28T21:28:30.555Z,100.00
2022-10-28T21:31:33.433Z,100.00
2022-10-28T21:34:36.783Z,100.00
2022-10-28T21:37:39.818Z,100.00
2022-10-28T21:40:42.732Z,100.00
2022-10-28T21:43:50.079Z,100.00
2022-10-28T21:46:55.041Z,100.00
2022-10-28T21:49:57.511Z,100.00
2022-10-28T21:53:04.291Z,100.00
2022-10-28T21:56:17.046Z,100.00
2022-10-28T21:59:21.744Z,100.00
2022-10-28T22:02:24.416Z,100.00
2022-10-28T22:05:27.302Z,100.00
2022-10-28T22:08:29.837Z,100.00
2022-10-28T22:11:32.652Z,100.00
2022-10-28T22:14:36.285Z,100.00
2022-10-28T22:17:40.088Z,100.00
2022-10-28T22:20:42.838Z,100.00
2022-10-28T22:23:45.962Z,100.00
2022-10-28T22:26:48.653Z,100.00
2022-10-28T22:29:52.331Z,100.00
2022-10-28T22:32:55.194Z,100.00
2022-10-28T22:35:59.796Z,100.00
2022-10-28T22:39:02.327Z,100.00
2022-10-28T22:42:05.396Z,100.00
2022-10-28T22:45:08.724Z,100.00
2022-10-28T22:48:11.495Z,100.00
2022-10-28T22:51:14.454Z,100.00
2022-10-28T22:54:17.318Z,100.00
2022-10-28T22:57:20.050Z,100.00
2022-10-28T23:00:22.961Z,100.00
2022-10-28T23:03:25.523Z,100.00
2022-10-28T23:06:28.796Z,100.00
2022-10-28T23:09:34.380Z,100.00
2022-10-28T23:12:37.438Z,100.00
2022-10-28T23:15:40.283Z,100.00
2022-10-28T23:18:44.202Z,100.00
2022-10-28T23:21:46.935Z,100.00
2022-10-28T23:24:49.637Z,100.00
2022-10-28T23:27:52.554Z,100.00
2022-10-28T23:31:00.007Z,100.00
2022-10-28T23:34:02.861Z,100.00
2022-10-28T23:37:06.039Z,100.00
2022-10-28T23:43:18.150Z,100.00
2022-10-28T23:46:21.880Z,100.00
2022-10-28T23:49:24.779Z,100.00
2022-10-28T23:52:27.292Z,100.00
2022-10-28T23:55:30.092Z,100.00
2022-10-28T23:58:32.527Z,100.00
